Pagrindinis puslapis
METAR-TAF:

METAR-TAF

Oro uostai :

Selawik, Aliaska, Jungtinės Amerikos Valstijos

platuma: 66-37N, ilguma: 160-00W, Aukštis: 8 m

Dabartinis oras

Ataskaita buvo paskelbta 17 minutes, ne 20:23 UTC
Vėjas 5 kt iš Rytų/Šiaurės Rytų
Temperatūra -11°C
Drėgmė 85%
Slėgis 1022 hPa
Matomumas: 1.2 km
Apsiniaukę ne aukštis 300 ft
sniegas, rūkana

METAR: PASK 282023Z AUTO 06005KT 3/4SM -SN BR OVC003 M11/M13 A3019 RMK AO2 SNB03 P0000 FZRANO

Laikas: 12:40 (20:40 UTC)


TAF: trūkstamas

Orai ataskaitas ir orų prognozės (METAR, TAF).

turimą stotys yra geltonos ir raudonos taškus žemėlapyje.

Perkelti pele per norėdami pamatyti stoties vardą.

Tada spustelėkite, norėdami matyti oro stebėjimo ir prognozės.

Norėdami pakeisti žemėlapį: spustelėkite ant žalios mygtukų su juodo kryžiaus žemyn,; žalią mygtuką su brūkšneliu, jei norite nutolinti; arba žalių rodyklių gretimoms žemėlapius.


METAR-TAF: